Time;durP1;ratioP1;P1;durP2;ratioP2;P2;SDS_P1;SDS_P2;PMS_P1;PMS_P2;Temp;Humidity;BMP_temperature;BMP_pressure;BME280_temperature;BME280_humidity;BME280_pressure;Samples;Min_cycle;Max_cycle;Signal;HPM_P1;HPM_P2
2021/04/17 08:03:45;;;;;;;27.20;12.35;;;8.80;94.10;;;;;;12185571;27;20355;-73
2021/04/17 08:09:33;;;;;;;29.52;14.73;;;9.60;93.60;;;;;;12167950;27;20047;-73
2021/04/17 08:15:21;;;;;;;23.27;12.30;;;10.20;91.10;;;;;;12168803;27;20075;-74
2021/04/17 08:21:11;;;;;;;23.17;11.38;;;10.80;88.40;;;;;;12165010;27;20069;-74
2021/04/17 08:27:00;;;;;;;29.65;12.90;;;10.90;87.00;;;;;;12166173;27;20059;-74
2021/04/17 08:32:49;;;;;;;26.15;12.15;;;11.10;86.20;;;;;;12151580;27;20039;-74
2021/04/17 08:38:37;;;;;;;20.23;11.23;;;11.00;86.30;;;;;;12155168;27;20052;-75
2021/04/17 08:44:28;;;;;;;22.58;11.90;;;11.00;85.70;;;;;;12151821;27;20539;-75
2021/04/17 08:50:25;;;;;;;20.60;10.98;;;11.30;85.30;;;;;;12155284;27;20937;-73
2021/04/17 08:56:13;;;;;;;27.38;13.18;;;10.90;84.20;;;;;;12155517;27;20059;-76
2021/04/17 09:02:03;;;;;;;24.75;11.73;;;11.20;85.30;;;;;;12154838;27;20158;-76
2021/04/17 09:08:11;;;;;;;18.23;9.68;;;11.50;83.20;;;;;;12157063;27;20047;-77
2021/04/17 09:13:58;;;;;;;18.02;9.45;;;11.40;81.20;;;;;;12130586;27;20071;-76
2021/04/17 09:19:54;;;;;;;18.52;9.93;;;11.30;81.00;;;;;;12126761;27;20050;-76
2021/04/17 09:25:44;;;;;;;26.25;10.18;;;11.40;81.80;;;;;;12124843;28;20059;-76
2021/04/17 09:31:35;;;;;;;20.83;9.77;;;11.30;80.40;;;;;;12124248;28;20279;-76
2021/04/17 09:37:26;;;;;;;23.33;10.75;;;11.60;81.80;;;;;;12121116;27;20148;-76
2021/04/17 09:43:26;;;;;;;27.63;11.88;;;11.70;79.50;;;;;;12122698;28;20090;-77
2021/04/17 09:49:31;;;;;;;22.00;10.52;;;11.90;80.50;;;;;;12125112;28;20058;-76
2021/04/17 09:55:18;;;;;;;20.60;10.82;;;12.00;78.60;;;;;;12119121;28;20112;-77
2021/04/17 10:01:14;;;;;;;24.90;11.35;;;12.10;77.30;;;;;;12122515;27;20559;-77
2021/04/17 10:07:02;;;;;;;21.13;11.93;;;11.70;78.80;;;;;;12120133;28;20104;-76
2021/04/17 10:12:51;;;;;;;29.35;13.05;;;11.80;78.90;;;;;;12118638;28;20412;-76
2021/04/17 10:18:39;;;;;;;19.80;11.07;;;12.10;78.90;;;;;;12119110;28;20513;-76
2021/04/17 10:24:28;;;;;;;23.98;11.60;;;12.20;77.40;;;;;;12123434;28;20051;-75
2021/04/17 10:30:19;;;;;;;20.50;10.77;;;12.50;77.40;;;;;;12120415;28;20082;-76
2021/04/17 10:36:16;;;;;;;21.52;10.55;;;12.50;75.20;;;;;;12116233;28;20159;-77
2021/04/17 10:42:06;;;;;;;19.30;10.18;;;12.80;74.50;;;;;;12115512;28;20410;-77
2021/04/17 10:48:06;;;;;;;20.83;10.07;;;12.90;74.30;;;;;;12120132;28;20053;-76
2021/04/17 10:54:02;;;;;;;19.17;10.10;;;13.20;74.00;;;;;;12119603;27;20108;-76
2021/04/17 10:59:59;;;;;;;16.15;9.95;;;13.30;72.20;;;;;;12117783;28;20047;-76
2021/04/17 11:05:46;;;;;;;16.33;9.57;;;13.40;72.60;;;;;;12115827;28;20122;-75
2021/04/17 11:11:35;;;;;;;16.10;9.52;;;13.30;70.50;;;;;;12114114;28;20055;-74
2021/04/17 11:17:21;;;;;;;24.73;9.38;;;13.30;71.60;;;;;;12115319;28;20055;-75
2021/04/17 11:23:35;;;;;;;12.88;8.82;;;13.90;71.00;;;;;;12116762;28;20486;-75
2021/04/17 11:29:23;;;;;;;14.88;9.38;;;14.20;67.90;;;;;;12112464;27;20058;-79
2021/04/17 11:35:10;;;;;;;14.38;7.68;;;14.30;66.40;;;;;;12111375;28;20534;-77
2021/04/17 11:40:57;;;;;;;15.35;8.45;;;14.10;66.10;;;;;;12108562;28;20124;-77
2021/04/17 11:46:45;;;;;;;13.68;8.20;;;14.70;66.80;;;;;;12110722;28;20052;-78
2021/04/17 11:52:31;;;;;;;16.40;8.63;;;14.60;63.90;;;;;;12111904;28;20052;-76
2021/04/17 11:58:21;;;;;;;18.80;8.40;;;14.50;64.70;;;;;;12103590;28;20044;-74
2021/04/17 12:04:08;;;;;;;16.45;7.25;;;14.90;64.70;;;;;;12107424;28;20047;-76
2021/04/17 12:09:56;;;;;;;19.83;7.70;;;15.00;60.60;;;;;;12114030;28;20043;-78
2021/04/17 12:15:45;;;;;;;24.55;7.97;;;15.10;62.10;;;;;;12118124;28;20055;-77
2021/04/17 12:21:35;;;;;;;14.40;7.80;;;15.10;62.20;;;;;;12123330;28;20055;-75
2021/04/17 12:27:23;;;;;;;16.73;8.60;;;14.60;63.50;;;;;;12114920;28;20407;-76
2021/04/17 12:33:10;;;;;;;19.98;8.38;;;15.00;61.60;;;;;;12113895;28;20059;-75
2021/04/17 12:39:02;;;;;;;14.27;7.75;;;15.10;61.30;;;;;;12116227;28;20048;-76
2021/04/17 12:44:49;;;;;;;13.27;7.70;;;15.10;61.50;;;;;;12116099;28;20056;-76
2021/04/17 12:50:35;;;;;;;13.75;7.78;;;15.00;60.20;;;;;;12119372;28;20426;-77
2021/04/17 12:56:23;;;;;;;16.98;9.13;;;14.50;61.20;;;;;;12120251;28;20079;-76
2021/04/17 13:02:11;;;;;;;12.02;7.15;;;14.90;60.70;;;;;;12120145;28;20410;-76
2021/04/17 13:07:57;;;;;;;9.77;7.15;;;15.30;57.50;;;;;;12119396;28;20910;-75
2021/04/17 13:13:44;;;;;;;14.25;6.90;;;15.70;58.20;;;;;;12123346;28;20040;-77
2021/04/17 13:19:31;;;;;;;18.05;6.10;;;15.60;56.40;;;;;;12119609;28;20052;-78
2021/04/17 13:31:15;;;;;;;13.55;7.53;;;16.10;56.90;;;;;;12136093;22;20090;-78
2021/04/17 13:37:04;;;;;;;13.23;6.70;;;15.90;56.60;;;;;;12047658;28;20053;-79
2021/04/17 13:42:53;;;;;;;11.48;6.68;;;16.30;56.30;;;;;;12042962;28;20056;-76
2021/04/17 13:48:40;;;;;;;10.80;5.80;;;16.40;55.20;;;;;;12041082;28;20045;-76
2021/04/17 13:54:30;;;;;;;11.85;5.88;;;15.70;55.60;;;;;;12040982;28;20068;-76
2021/04/17 14:00:17;;;;;;;17.38;5.90;;;16.10;54.90;;;;;;12047979;28;20423;-79
2021/04/17 14:06:05;;;;;;;11.27;6.30;;;16.40;54.00;;;;;;12052871;28;20142;-78
2021/04/17 14:11:52;;;;;;;11.65;5.97;;;16.20;51.60;;;;;;12048410;28;20052;-79
2021/04/17 14:17:40;;;;;;;7.05;5.30;;;16.60;52.80;;;;;;12058406;28;20499;-78
2021/04/17 14:23:28;;;;;;;10.65;5.35;;;16.60;53.10;;;;;;12045812;28;20052;-79
2021/04/17 14:29:14;;;;;;;9.10;5.00;;;16.80;49.90;;;;;;12047316;28;20053;-78
2021/04/17 14:35:00;;;;;;;22.52;5.72;;;16.70;51.10;;;;;;12043887;28;20056;-77
2021/04/17 14:40:48;;;;;;;14.82;7.10;;;16.50;50.00;;;;;;12049085;28;20048;-77
2021/04/17 14:46:34;;;;;;;10.80;5.70;;;16.50;49.80;;;;;;12058542;28;20177;-77
2021/04/17 14:52:21;;;;;;;21.40;5.07;;;16.40;49.40;;;;;;12054602;28;20143;-77
2021/04/17 14:58:08;;;;;;;15.13;9.32;;;16.30;49.90;;;;;;12058967;28;20049;-78
2021/04/17 15:03:54;;;;;;;12.05;5.93;;;16.50;49.80;;;;;;12050106;28;20052;-78
2021/04/17 15:09:40;;;;;;;31.42;19.30;;;16.50;48.50;;;;;;12036849;28;20447;-73
2021/04/17 15:15:28;;;;;;;11.60;6.88;;;16.20;50.10;;;;;;12036834;28;20139;-74
2021/04/17 15:21:15;;;;;;;10.18;6.63;;;16.60;51.00;;;;;;12034106;28;20044;-73
2021/04/17 15:27:01;;;;;;;25.25;12.38;;;16.60;50.00;;;;;;12033426;28;20053;-76
2021/04/17 15:32:49;;;;;;;9.43;6.18;;;17.10;50.10;;;;;;12037142;28;20725;-76
2021/04/17 15:38:39;;;;;;;10.18;6.00;;;17.20;47.90;;;;;;12033769;28;20049;-77
2021/04/17 15:44:25;;;;;;;10.95;5.90;;;17.10;47.90;;;;;;12034025;28;20052;-76
2021/04/17 15:50:13;;;;;;;10.18;5.95;;;17.30;48.20;;;;;;12031748;28;20051;-77
2021/04/17 15:56:00;;;;;;;10.98;5.35;;;17.00;48.30;;;;;;12036852;28;20053;-77
2021/04/17 16:20:08;;;;;;;14.18;6.95;;;18.00;47.50;;;;;;11915671;28;20149;-75
2021/04/17 16:25:55;;;;;;;8.60;6.13;;;19.80;44.80;;;;;;11929620;28;20054;-75
2021/04/17 16:31:43;;;;;;;9.02;7.00;;;21.10;42.50;;;;;;11936603;28;20057;-77
2021/04/17 16:37:33;;;;;;;14.77;7.22;;;22.30;41.40;;;;;;11948187;28;20519;-79
2021/04/17 16:50:16;;;;;;;10.15;6.82;;;22.40;40.50;;;;;;11736512;28;20068;-79
2021/04/17 16:56:03;;;;;;;11.70;6.45;;;24.30;38.00;;;;;;11771582;28;20057;-78
2021/04/17 17:01:50;;;;;;;8.07;6.00;;;24.70;37.40;;;;;;11697643;28;20051;-78
2021/04/17 17:07:38;;;;;;;11.25;6.45;;;24.00;36.70;;;;;;11715466;29;20051;-77
2021/04/17 17:13:24;;;;;;;8.73;6.53;;;21.00;40.60;;;;;;11717293;29;20208;-74
2021/04/17 17:19:12;;;;;;;15.88;8.32;;;20.90;41.30;;;;;;11798687;28;20065;-75
2021/04/17 17:25:02;;;;;;;10.95;6.35;;;22.10;38.90;;;;;;11924212;28;20515;-78
2021/04/17 17:30:48;;;;;;;11.30;6.85;;;22.60;38.00;;;;;;11986746;28;20049;-76
2021/04/17 17:36:35;;;;;;;10.38;6.80;;;22.70;37.40;;;;;;11994716;28;20500;-77
2021/04/17 17:42:24;;;;;;;8.77;6.32;;;22.10;38.30;;;;;;11989443;28;20045;-76
2021/04/17 17:48:11;;;;;;;10.00;6.10;;;21.70;39.00;;;;;;11983704;28;20059;-75
2021/04/17 17:53:59;;;;;;;14.13;7.22;;;20.60;41.00;;;;;;11978161;28;20042;-76
2021/04/17 17:59:46;;;;;;;13.02;6.72;;;19.00;43.40;;;;;;11982959;28;20147;-76
2021/04/17 18:05:33;;;;;;;12.68;7.05;;;17.80;45.90;;;;;;11985883;28;20049;-76
2021/04/17 18:11:19;;;;;;;11.75;7.45;;;17.10;47.80;;;;;;11988702;28;20049;-77
2021/04/17 18:17:06;;;;;;;14.40;7.60;;;16.50;48.90;;;;;;11986571;28;20049;-77
2021/04/17 18:22:53;;;;;;;11.43;7.35;;;16.20;50.00;;;;;;11979663;28;20045;-77
2021/04/17 18:28:39;;;;;;;10.20;7.43;;;16.00;51.00;;;;;;11983138;28;20053;-76
2021/04/17 18:34:26;;;;;;;16.17;8.25;;;15.60;51.40;;;;;;11988337;28;20048;-77
2021/04/17 18:40:14;;;;;;;14.00;7.65;;;15.50;52.00;;;;;;11981442;28;20049;-76
2021/04/17 18:46:01;;;;;;;12.75;7.60;;;15.40;52.50;;;;;;11992058;28;20056;-78
2021/04/17 18:51:49;;;;;;;19.52;8.93;;;15.30;52.80;;;;;;12000026;28;20136;-78
2021/04/17 18:57:37;;;;;;;16.05;10.45;;;14.90;53.40;;;;;;11992040;28;20045;-78
2021/04/17 19:03:24;;;;;;;12.70;8.55;;;14.80;54.20;;;;;;11980535;28;20503;-76
2021/04/17 19:09:11;;;;;;;14.60;9.48;;;14.70;54.40;;;;;;11984722;28;20630;-77
2021/04/17 19:14:58;;;;;;;15.15;8.73;;;14.60;54.40;;;;;;11992173;28;20049;-76
2021/04/17 19:20:44;;;;;;;15.82;8.65;;;14.60;54.70;;;;;;11992091;28;20068;-79
2021/04/17 19:26:32;;;;;;;15.63;8.55;;;14.60;54.50;;;;;;11986960;28;20061;-75
2021/04/17 19:32:18;;;;;;;12.88;8.27;;;14.60;54.80;;;;;;11980620;28;20057;-76
2021/04/17 19:38:05;;;;;;;15.60;9.02;;;14.60;54.80;;;;;;11986074;28;20109;-76
2021/04/17 19:43:52;;;;;;;16.15;8.88;;;14.50;54.60;;;;;;11992872;28;20049;-76
2021/04/17 19:49:38;;;;;;;14.68;8.80;;;14.60;54.70;;;;;;11995066;28;20052;-77
2021/04/17 19:55:26;;;;;;;13.55;9.02;;;14.60;55.00;;;;;;11989864;28;20052;-78
2021/04/17 20:01:13;;;;;;;14.48;9.73;;;14.50;55.10;;;;;;11990203;28;20096;-77
2021/04/17 20:06:59;;;;;;;16.42;10.05;;;14.50;55.40;;;;;;11983483;28;20048;-77
2021/04/17 20:12:46;;;;;;;12.32;8.65;;;14.40;55.60;;;;;;11987151;28;20037;-78
2021/04/17 20:18:33;;;;;;;18.83;9.60;;;14.40;56.30;;;;;;11982545;28;20053;-78
2021/04/17 20:24:19;;;;;;;16.55;9.50;;;14.40;56.90;;;;;;11985526;28;20044;-77
2021/04/17 20:30:08;;;;;;;15.00;9.88;;;14.30;57.00;;;;;;11986810;28;20702;-77
2021/04/17 20:35:55;;;;;;;16.00;8.80;;;14.10;56.90;;;;;;11984166;28;20088;-77
2021/04/17 20:41:42;;;;;;;13.00;8.57;;;13.90;57.30;;;;;;11985222;28;20056;-76
2021/04/17 20:47:28;;;;;;;14.93;7.80;;;13.70;58.10;;;;;;11979533;28;20084;-75
2021/04/17 20:53:15;;;;;;;13.63;7.55;;;13.70;58.50;;;;;;11977519;28;20049;-75
2021/04/17 20:59:03;;;;;;;11.73;7.07;;;13.70;58.60;;;;;;11976955;28;20055;-75
2021/04/17 21:04:50;;;;;;;16.95;7.45;;;13.60;59.10;;;;;;11973198;28;20064;-74
2021/04/17 21:10:37;;;;;;;11.70;6.45;;;13.70;59.20;;;;;;11984464;28;20045;-74
2021/04/17 21:16:23;;;;;;;17.60;6.85;;;13.70;59.40;;;;;;11982469;28;20557;-74
2021/04/17 21:22:10;;;;;;;10.40;6.32;;;13.60;59.60;;;;;;11986311;28;20041;-77
2021/04/17 21:27:57;;;;;;;14.27;6.53;;;13.30;60.60;;;;;;11994092;28;20057;-76
2021/04/17 21:33:44;;;;;;;12.75;6.30;;;13.30;61.10;;;;;;11996805;28;20037;-78
2021/04/17 21:39:34;;;;;;;12.50;6.03;;;13.40;61.10;;;;;;11998911;28;20123;-78
2021/04/17 21:45:24;;;;;;;17.50;6.05;;;13.20;61.60;;;;;;12006107;28;20098;-80
2021/04/17 21:51:13;;;;;;;9.50;5.80;;;13.30;61.90;;;;;;12014710;28;20116;-80
2021/04/17 21:57:01;;;;;;;11.52;5.57;;;13.30;62.10;;;;;;12004995;28;20102;-80
2021/04/17 22:02:49;;;;;;;13.52;6.22;;;13.10;62.50;;;;;;12003801;28;20053;-79
2021/04/17 22:08:35;;;;;;;15.43;6.22;;;13.10;63.00;;;;;;12008289;28;20045;-78
2021/04/17 22:14:21;;;;;;;15.13;6.18;;;13.10;63.30;;;;;;12002238;28;20056;-79
2021/04/17 22:20:11;;;;;;;13.50;5.72;;;13.00;63.40;;;;;;12004851;28;20053;-79
2021/04/17 22:25:57;;;;;;;14.98;6.05;;;12.80;64.00;;;;;;12000629;28;20048;-80
2021/04/17 22:31:44;;;;;;;11.93;5.32;;;12.60;64.20;;;;;;11997853;28;20041;-79
2021/04/17 22:37:37;;;;;;;15.98;5.90;;;12.40;65.20;;;;;;11999041;28;20053;-77
2021/04/17 22:43:23;;;;;;;14.37;5.47;;;12.50;65.30;;;;;;11994443;28;20468;-77
2021/04/17 22:49:10;;;;;;;13.02;5.03;;;12.50;65.20;;;;;;11991109;28;20052;-77
2021/04/17 22:54:57;;;;;;;12.23;5.40;;;12.50;65.20;;;;;;11997946;28;20046;-78
2021/04/17 23:00:43;;;;;;;11.77;5.40;;;12.60;65.20;;;;;;11998486;28;20057;-78
2021/04/17 23:06:30;;;;;;;10.98;5.03;;;12.40;65.80;;;;;;12000257;28;20044;-78
2021/04/17 23:12:18;;;;;;;10.63;5.45;;;12.40;66.20;;;;;;11999261;28;20046;-78
2021/04/17 23:18:07;;;;;;;12.30;5.55;;;12.00;67.30;;;;;;11996783;28;20135;-79
2021/04/17 23:23:53;;;;;;;11.95;5.63;;;12.20;67.10;;;;;;11993874;28;20150;-78
2021/04/17 23:29:42;;;;;;;15.27;5.22;;;12.30;67.30;;;;;;11994338;28;20057;-79
2021/04/17 23:35:28;;;;;;;21.38;6.00;;;12.20;67.80;;;;;;11999195;28;20515;-78
2021/04/17 23:41:16;;;;;;;17.60;5.57;;;12.00;68.40;;;;;;11992059;28;20590;-78
2021/04/17 23:47:03;;;;;;;15.93;5.90;;;12.00;68.70;;;;;;11994768;28;20495;-78
2021/04/17 23:52:49;;;;;;;17.10;5.80;;;12.10;68.40;;;;;;11996741;28;20048;-78
2021/04/17 23:58:36;;;;;;;14.82;6.20;;;12.10;68.60;;;;;;11989335;28;20041;-76
